Seneimaru — JG5357 — position and weather

sailwx.info

Track history (hours):
 
Tides and Currents Weather Stations Pressure Air Temp Water Temp Dewpoint Dewpoint Depression Visibility Wind Speed Wind Dir Waves Ship Positions

Seneimaru

Last reported at 2016-Aug-28 01:33 UTC. Time now 2016-Aug-28 02:15 UTC.
Position N 35°30' E 139°43'.

Length 72 m; draft 5.9 m.

Type: Cargo ship. MMSI: 431100477.

Date/timePositionNaut miles runAvg speedWind from/ knotsBaromVisibWave heightAir tempDewpointWater temp
2016-Aug-28 01:33N 35°30' E 139°43'0 0.0
2016-Aug-28 00:33N 35°30' E 139°43'0 0.0
2016-Aug-27 23:33N 35°30' E 139°43'0 0.0
2016-Aug-27 22:33N 35°30' E 139°43'0 0.0
2016-Aug-27 21:33N 35°30' E 139°43'0 0.0
2016-Aug-27 20:34N 35°30' E 139°43'0 0.0
2016-Aug-27 19:33N 35°30' E 139°43'0 0.0
2016-Aug-27 18:33N 35°30' E 139°43'0 0.0
2016-Aug-27 17:33N 35°30' E 139°43'0 0.0
2016-Aug-27 16:33N 35°30' E 139°43'0 0.0
2016-Aug-27 15:33N 35°30' E 139°43'0 0.0
2016-Aug-27 14:33N 35°30' E 139°43'0 0.0
2016-Aug-27 13:33N 35°30' E 139°43'0 0.0
2016-Aug-27 12:33N 35°30' E 139°43'0 0.0
2016-Aug-27 11:33N 35°30' E 139°43'0 0.0
2016-Aug-27 10:33N 35°30' E 139°43'0 0.0
2016-Aug-27 09:33N 35°30' E 139°43'0 0.0
2016-Aug-27 08:33N 35°30' E 139°43'0 0.0
2016-Aug-27 07:33N 35°30' E 139°43'0 0.0
2016-Aug-27 06:33N 35°30' E 139°43'0 0.0
2016-Aug-27 04:33N 35°30' E 139°43'0 0.0
2016-Aug-27 03:33N 35°30' E 139°43'0 0.0
2016-Aug-27 02:33N 35°30' E 139°43'0 0.0
2016-Aug-27 01:33N 35°30' E 139°43'0 0.0
2016-Aug-27 00:33N 35°30' E 139°43'0 0.0
2016-Aug-26 23:33N 35°30' E 139°43'0 0.0
2016-Aug-26 22:33N 35°30' E 139°43'0 0.0
2016-Aug-26 21:33N 35°30' E 139°43'0 0.0
2016-Aug-26 20:33N 35°30' E 139°43'1 1.4
2016-Aug-26 19:34N 35°29' E 139°42'6 5.8
2016-Aug-26 18:33N 35°23' E 139°44'0 0.1
2016-Aug-26 17:33N 35°23' E 139°44'0 0.0
2016-Aug-26 16:33N 35°23' E 139°44'5 4.6
2016-Aug-26 15:34N 35°19' E 139°44'1111.1
2016-Aug-26 14:33N 35°08' E 139°46'1111.4
2016-Aug-26 13:33N 34°56' E 139°44'3 0.1
2016-Aug-25 04:25N 34°59' E 139°43'910.9
2016-Aug-25 03:33N 35°08' E 139°45'1111.1
2016-Aug-25 02:34N 35°19' E 139°43'1110.6
2016-Aug-25 01:34N 35°29' E 139°47'4 3.8
2016-Aug-25 00:33N 35°30' E 139°43'0 0.0
2016-Aug-24 23:34N 35°30' E 139°43'0 0.0
2016-Aug-24 22:33N 35°30' E 139°43'0 0.0
2016-Aug-24 21:34N 35°30' E 139°43'0 0.0
2016-Aug-24 20:34N 35°30' E 139°43'0 0.0
2016-Aug-24 19:33N 35°30' E 139°43'0 0.0
2016-Aug-24 18:34N 35°30' E 139°43'0 0.0
2016-Aug-24 17:33N 35°30' E 139°43'0 0.0
2016-Aug-24 16:33N 35°30' E 139°43'0 0.0
2016-Aug-24 15:34N 35°30' E 139°43'0 0.0
2016-Aug-24 14:34N 35°30' E 139°43'0 0.0
2016-Aug-24 13:33N 35°30' E 139°43'0 0.0
2016-Aug-24 12:33N 35°30' E 139°43'0 0.0
2016-Aug-24 11:33N 35°30' E 139°43'0 0.0
2016-Aug-24 10:33N 35°30' E 139°43'0 0.0
2016-Aug-24 09:34N 35°30' E 139°43'0 0.0
2016-Aug-24 08:34N 35°30' E 139°43'0 0.0
2016-Aug-24 07:34N 35°30' E 139°43'0 0.0
2016-Aug-24 06:34N 35°30' E 139°43'0 0.0
2016-Aug-24 04:33N 35°30' E 139°43'0 0.0
2016-Aug-24 03:34N 35°30' E 139°43'0 0.0
2016-Aug-24 02:34N 35°30' E 139°43'0 0.0
2016-Aug-24 01:33N 35°30' E 139°43'0 0.0
2016-Aug-24 00:33N 35°30' E 139°43'0 0.0
2016-Aug-23 23:34N 35°30' E 139°43'0 0.0
2016-Aug-23 22:33N 35°30' E 139°43'0 0.0
2016-Aug-23 21:34N 35°30' E 139°43'0 0.0
2016-Aug-23 20:34N 35°30' E 139°43'0 0.0
2016-Aug-23 19:33N 35°30' E 139°43'0 0.0
2016-Aug-23 18:34N 35°30' E 139°43'0 0.0
2016-Aug-23 17:34N 35°30' E 139°43'0 0.0
2016-Aug-23 16:33N 35°30' E 139°43'0 0.0
2016-Aug-23 15:33N 35°30' E 139°43'0 0.0
2016-Aug-23 14:34N 35°30' E 139°43'0 0.0
2016-Aug-23 13:33N 35°30' E 139°43'0 0.0
2016-Aug-23 12:34N 35°30' E 139°43'0 0.0
2016-Aug-23 11:34N 35°30' E 139°43'0 0.0
2016-Aug-23 10:33N 35°30' E 139°43'0 0.0
2016-Aug-23 09:34N 35°30' E 139°43'0 0.0
2016-Aug-23 08:34N 35°30' E 139°43'0 0.0
2016-Aug-23 07:34N 35°30' E 139°43'0 0.0
2016-Aug-23 06:33N 35°30' E 139°43'0 0.0
2016-Aug-23 05:33N 35°30' E 139°43'0 0.0
2016-Aug-23 04:33N 35°30' E 139°43'6 5.8
2016-Aug-23 03:33N 35°24' E 139°44'1 1.2
2016-Aug-23 02:32N 35°23' E 139°44'0 0.0
2016-Aug-23 01:29N 35°23' E 139°44'0 0.1
2016-Aug-23 00:32N 35°23' E 139°44'0 0.0
2016-Aug-22 23:29N 35°23' E 139°44'0 0.1
2016-Aug-22 22:32N 35°23' E 139°45'0 0.0
2016-Aug-22 21:32N 35°23' E 139°45'0 0.0
2016-Aug-22 20:32N 35°23' E 139°45'0 0.0
2016-Aug-22 19:32N 35°23' E 139°45'0 0.1
2016-Aug-22 18:32N 35°23' E 139°44'0 0.0
2016-Aug-22 17:32N 35°23' E 139°45'0 0.0
2016-Aug-22 16:32N 35°23' E 139°44'0 0.0
2016-Aug-22 15:32N 35°23' E 139°44'0 0.1
2016-Aug-22 14:32N 35°23' E 139°44'0 0.1
2016-Aug-22 13:32N 35°23' E 139°44'0 0.1
2016-Aug-22 12:33N 35°23' E 139°45'0 0.0
2016-Aug-22 11:33N 35°23' E 139°45'0 0.0
2016-Aug-22 10:29N 35°23' E 139°45'0 0.0
2016-Aug-22 09:32N 35°23' E 139°45'0 0.0
2016-Aug-22 08:33N 35°23' E 139°45'0 0.0
2016-Aug-22 07:34N 35°23' E 139°44'0 0.1
2016-Aug-22 06:33N 35°23' E 139°45'0 0.1
2016-Aug-22 05:34N 35°23' E 139°44'0 0.2
2016-Aug-22 04:33N 35°23' E 139°44'0 0.1
2016-Aug-22 03:33N 35°23' E 139°44'0 0.0
2016-Aug-22 02:33N 35°23' E 139°44'0 0.0
2016-Aug-22 01:33N 35°23' E 139°44'0 0.0
2016-Aug-22 00:31N 35°23' E 139°44'0 0.0
2016-Aug-21 23:33N 35°23' E 139°44'0 0.0
2016-Aug-21 22:30N 35°23' E 139°44'0 0.0
2016-Aug-21 21:33N 35°23' E 139°44'0 0.0
2016-Aug-21 20:32N 35°23' E 139°44'0 0.0
2016-Aug-21 19:33N 35°23' E 139°44'0 0.0
2016-Aug-21 18:33N 35°23' E 139°44'0 0.0
2016-Aug-21 17:33N 35°23' E 139°44'0 0.1
2016-Aug-21 16:33N 35°23' E 139°44'0 0.0
2016-Aug-21 15:34N 35°23' E 139°44'0 0.0
2016-Aug-21 14:33N 35°23' E 139°44'2 1.9
2016-Aug-21 13:34N 35°22' E 139°43'1010.4
2016-Aug-21 12:34N 35°12' E 139°47'1512.4
2016-Aug-21 11:20N 34°56' E 139°44'6 0.2
2016-Aug-20 03:04N 34°51' E 139°47'5 9.4
2016-Aug-20 02:32N 34°56' E 139°45'1110.9
2016-Aug-20 01:33N 35°07' E 139°45'1212.2
2016-Aug-20 00:33N 35°19' E 139°43'1111.2
2016-Aug-19 23:33N 35°29' E 139°48'4 3.9
2016-Aug-19 22:33N 35°30' E 139°43'0 0.0
2016-Aug-19 21:33N 35°30' E 139°43'0 0.0
2016-Aug-19 20:33N 35°30' E 139°43'0 0.0
2016-Aug-19 19:33N 35°30' E 139°43'0 0.0
2016-Aug-19 18:33N 35°30' E 139°43'0 0.0
2016-Aug-19 17:33N 35°30' E 139°43'0 0.0
2016-Aug-19 16:33N 35°30' E 139°43'0 0.0
2016-Aug-19 15:33N 35°30' E 139°43'0 0.0
2016-Aug-19 14:33N 35°30' E 139°43'0 0.0
2016-Aug-19 13:33N 35°30' E 139°43'0 0.0
2016-Aug-19 12:33N 35°30' E 139°43'0 0.0
2016-Aug-19 11:33N 35°30' E 139°43'0 0.0
2016-Aug-19 10:33N 35°30' E 139°43'0 0.0
2016-Aug-19 09:33N 35°30' E 139°43'0 0.0
2016-Aug-19 08:33N 35°30' E 139°43'0 0.0
2016-Aug-19 07:33N 35°30' E 139°43'0 0.0
2016-Aug-19 06:33N 35°30' E 139°43'0 0.0
2016-Aug-19 05:33N 35°30' E 139°43'0 0.0
2016-Aug-19 04:33N 35°30' E 139°43'0 0.0
2016-Aug-19 03:33N 35°30' E 139°43'0 0.0
2016-Aug-19 02:33N 35°30' E 139°43'0 0.0
2016-Aug-19 01:33N 35°30' E 139°43'0 0.0
2016-Aug-19 00:33N 35°30' E 139°43'0 0.0
2016-Aug-18 23:33N 35°30' E 139°43'0 0.0
2016-Aug-18 22:33N 35°30' E 139°43'0 0.0
2016-Aug-18 21:33N 35°30' E 139°43'0 0.0
2016-Aug-18 20:33N 35°30' E 139°43'0 0.0
2016-Aug-18 19:33N 35°30' E 139°43'0 0.0
2016-Aug-18 18:33N 35°30' E 139°43'0 0.0
2016-Aug-18 17:33N 35°30' E 139°43'0 0.0
2016-Aug-18 16:33N 35°30' E 139°43'0 0.0
2016-Aug-18 15:33N 35°30' E 139°43'0 0.0
2016-Aug-18 14:33N 35°30' E 139°43'0 0.0
2016-Aug-18 13:33N 35°30' E 139°43'0 0.0
2016-Aug-18 12:33N 35°30' E 139°43'0 0.0
2016-Aug-18 11:33N 35°30' E 139°43'0 0.0
2016-Aug-18 10:33N 35°30' E 139°43'0 0.0
2016-Aug-18 09:33N 35°30' E 139°43'0 0.0
2016-Aug-18 08:33N 35°30' E 139°43'0 0.0
2016-Aug-18 07:33N 35°30' E 139°43'0 0.0
2016-Aug-18 06:33N 35°30' E 139°43'0 0.0
2016-Aug-18 05:33N 35°30' E 139°43'0 0.0
2016-Aug-18 04:33N 35°30' E 139°43'0 0.0
2016-Aug-18 03:33N 35°30' E 139°43'0 0.0
2016-Aug-18 02:33N 35°30' E 139°43'0 0.0
2016-Aug-18 01:33N 35°30' E 139°43'  
Track history (hours):
 
Tides and Currents Weather Stations Pressure Air Temp Water Temp Dewpoint Dewpoint Depression Visibility Wind Speed Wind Dir Waves Ship Positions

Seneimaru

Last reported at 2016-Aug-28 01:33 UTC. Time now 2016-Aug-28 02:15 UTC.
Position N 35°30' E 139°43'.

Length 72 m; draft 5.9 m.

Type: Cargo ship. MMSI: 431100477.

Date/timePositionNaut miles runAvg speedWind from/ knotsBaromVisibWave heightAir tempDewpointWater temp
2016-Aug-28 01:33N 35°30' E 139°43'0 0.0
2016-Aug-28 00:33N 35°30' E 139°43'0 0.0
2016-Aug-27 23:33N 35°30' E 139°43'0 0.0
2016-Aug-27 22:33N 35°30' E 139°43'0 0.0
2016-Aug-27 21:33N 35°30' E 139°43'0 0.0
2016-Aug-27 20:34N 35°30' E 139°43'0 0.0
2016-Aug-27 19:33N 35°30' E 139°43'0 0.0
2016-Aug-27 18:33N 35°30' E 139°43'0 0.0
2016-Aug-27 17:33N 35°30' E 139°43'0 0.0
2016-Aug-27 16:33N 35°30' E 139°43'0 0.0
2016-Aug-27 15:33N 35°30' E 139°43'0 0.0
2016-Aug-27 14:33N 35°30' E 139°43'0 0.0
2016-Aug-27 13:33N 35°30' E 139°43'0 0.0
2016-Aug-27 12:33N 35°30' E 139°43'0 0.0
2016-Aug-27 11:33N 35°30' E 139°43'0 0.0
2016-Aug-27 10:33N 35°30' E 139°43'0 0.0
2016-Aug-27 09:33N 35°30' E 139°43'0 0.0
2016-Aug-27 08:33N 35°30' E 139°43'0 0.0
2016-Aug-27 07:33N 35°30' E 139°43'0 0.0
2016-Aug-27 06:33N 35°30' E 139°43'0 0.0
2016-Aug-27 04:33N 35°30' E 139°43'0 0.0
2016-Aug-27 03:33N 35°30' E 139°43'0 0.0
2016-Aug-27 02:33N 35°30' E 139°43'0 0.0
2016-Aug-27 01:33N 35°30' E 139°43'0 0.0
2016-Aug-27 00:33N 35°30' E 139°43'0 0.0
2016-Aug-26 23:33N 35°30' E 139°43'0 0.0
2016-Aug-26 22:33N 35°30' E 139°43'0 0.0
2016-Aug-26 21:33N 35°30' E 139°43'0 0.0
2016-Aug-26 20:33N 35°30' E 139°43'1 1.4
2016-Aug-26 19:34N 35°29' E 139°42'6 5.8
2016-Aug-26 18:33N 35°23' E 139°44'0 0.1
2016-Aug-26 17:33N 35°23' E 139°44'0 0.0
2016-Aug-26 16:33N 35°23' E 139°44'5 4.6
2016-Aug-26 15:34N 35°19' E 139°44'1111.1
2016-Aug-26 14:33N 35°08' E 139°46'1111.4
2016-Aug-26 13:33N 34°56' E 139°44'3 0.1
2016-Aug-25 04:25N 34°59' E 139°43'910.9
2016-Aug-25 03:33N 35°08' E 139°45'1111.1
2016-Aug-25 02:34N 35°19' E 139°43'1110.6
2016-Aug-25 01:34N 35°29' E 139°47'4 3.8
2016-Aug-25 00:33N 35°30' E 139°43'0 0.0
2016-Aug-24 23:34N 35°30' E 139°43'0 0.0
2016-Aug-24 22:33N 35°30' E 139°43'0 0.0
2016-Aug-24 21:34N 35°30' E 139°43'0 0.0
2016-Aug-24 20:34N 35°30' E 139°43'0 0.0
2016-Aug-24 19:33N 35°30' E 139°43'0 0.0
2016-Aug-24 18:34N 35°30' E 139°43'0 0.0
2016-Aug-24 17:33N 35°30' E 139°43'0 0.0
2016-Aug-24 16:33N 35°30' E 139°43'0 0.0
2016-Aug-24 15:34N 35°30' E 139°43'0 0.0
2016-Aug-24 14:34N 35°30' E 139°43'0 0.0
2016-Aug-24 13:33N 35°30' E 139°43'0 0.0
2016-Aug-24 12:33N 35°30' E 139°43'0 0.0
2016-Aug-24 11:33N 35°30' E 139°43'0 0.0
2016-Aug-24 10:33N 35°30' E 139°43'0 0.0
2016-Aug-24 09:34N 35°30' E 139°43'0 0.0
2016-Aug-24 08:34N 35°30' E 139°43'0 0.0
2016-Aug-24 07:34N 35°30' E 139°43'0 0.0
2016-Aug-24 06:34N 35°30' E 139°43'0 0.0
2016-Aug-24 04:33N 35°30' E 139°43'0 0.0
2016-Aug-24 03:34N 35°30' E 139°43'0 0.0
2016-Aug-24 02:34N 35°30' E 139°43'0 0.0
2016-Aug-24 01:33N 35°30' E 139°43'0 0.0
2016-Aug-24 00:33N 35°30' E 139°43'0 0.0
2016-Aug-23 23:34N 35°30' E 139°43'0 0.0
2016-Aug-23 22:33N 35°30' E 139°43'0 0.0
2016-Aug-23 21:34N 35°30' E 139°43'0 0.0
2016-Aug-23 20:34N 35°30' E 139°43'0 0.0
2016-Aug-23 19:33N 35°30' E 139°43'0 0.0
2016-Aug-23 18:34N 35°30' E 139°43'0 0.0
2016-Aug-23 17:34N 35°30' E 139°43'0 0.0
2016-Aug-23 16:33N 35°30' E 139°43'0 0.0
2016-Aug-23 15:33N 35°30' E 139°43'0 0.0
2016-Aug-23 14:34N 35°30' E 139°43'0 0.0
2016-Aug-23 13:33N 35°30' E 139°43'0 0.0
2016-Aug-23 12:34N 35°30' E 139°43'0 0.0
2016-Aug-23 11:34N 35°30' E 139°43'0 0.0
2016-Aug-23 10:33N 35°30' E 139°43'0 0.0
2016-Aug-23 09:34N 35°30' E 139°43'0 0.0
2016-Aug-23 08:34N 35°30' E 139°43'0 0.0
2016-Aug-23 07:34N 35°30' E 139°43'0 0.0
2016-Aug-23 06:33N 35°30' E 139°43'0 0.0
2016-Aug-23 05:33N 35°30' E 139°43'0 0.0
2016-Aug-23 04:33N 35°30' E 139°43'6 5.8
2016-Aug-23 03:33N 35°24' E 139°44'1 1.2
2016-Aug-23 02:32N 35°23' E 139°44'0 0.0
2016-Aug-23 01:29N 35°23' E 139°44'0 0.1
2016-Aug-23 00:32N 35°23' E 139°44'0 0.0
2016-Aug-22 23:29N 35°23' E 139°44'0 0.1
2016-Aug-22 22:32N 35°23' E 139°45'0 0.0
2016-Aug-22 21:32N 35°23' E 139°45'0 0.0
2016-Aug-22 20:32N 35°23' E 139°45'0 0.0
2016-Aug-22 19:32N 35°23' E 139°45'0 0.1
2016-Aug-22 18:32N 35°23' E 139°44'0 0.0
2016-Aug-22 17:32N 35°23' E 139°45'0 0.0
2016-Aug-22 16:32N 35°23' E 139°44'0 0.0
2016-Aug-22 15:32N 35°23' E 139°44'0 0.1
2016-Aug-22 14:32N 35°23' E 139°44'0 0.1
2016-Aug-22 13:32N 35°23' E 139°44'0 0.1
2016-Aug-22 12:33N 35°23' E 139°45'0 0.0
2016-Aug-22 11:33N 35°23' E 139°45'0 0.0
2016-Aug-22 10:29N 35°23' E 139°45'0 0.0
2016-Aug-22 09:32N 35°23' E 139°45'0 0.0
2016-Aug-22 08:33N 35°23' E 139°45'0 0.0
2016-Aug-22 07:34N 35°23' E 139°44'0 0.1
2016-Aug-22 06:33N 35°23' E 139°45'0 0.1
2016-Aug-22 05:34N 35°23' E 139°44'0 0.2
2016-Aug-22 04:33N 35°23' E 139°44'0 0.1
2016-Aug-22 03:33N 35°23' E 139°44'0 0.0
2016-Aug-22 02:33N 35°23' E 139°44'0 0.0
2016-Aug-22 01:33N 35°23' E 139°44'0 0.0
2016-Aug-22 00:31N 35°23' E 139°44'0 0.0
2016-Aug-21 23:33N 35°23' E 139°44'0 0.0
2016-Aug-21 22:30N 35°23' E 139°44'0 0.0
2016-Aug-21 21:33N 35°23' E 139°44'0 0.0
2016-Aug-21 20:32N 35°23' E 139°44'0 0.0
2016-Aug-21 19:33N 35°23' E 139°44'0 0.0
2016-Aug-21 18:33N 35°23' E 139°44'0 0.0
2016-Aug-21 17:33N 35°23' E 139°44'0 0.1
2016-Aug-21 16:33N 35°23' E 139°44'0 0.0
2016-Aug-21 15:34N 35°23' E 139°44'0 0.0
2016-Aug-21 14:33N 35°23' E 139°44'2 1.9
2016-Aug-21 13:34N 35°22' E 139°43'1010.4
2016-Aug-21 12:34N 35°12' E 139°47'1512.4
2016-Aug-21 11:20N 34°56' E 139°44'6 0.2
2016-Aug-20 03:04N 34°51' E 139°47'5 9.4
2016-Aug-20 02:32N 34°56' E 139°45'1110.9
2016-Aug-20 01:33N 35°07' E 139°45'1212.2
2016-Aug-20 00:33N 35°19' E 139°43'1111.2
2016-Aug-19 23:33N 35°29' E 139°48'4 3.9
2016-Aug-19 22:33N 35°30' E 139°43'0 0.0
2016-Aug-19 21:33N 35°30' E 139°43'0 0.0
2016-Aug-19 20:33N 35°30' E 139°43'0 0.0
2016-Aug-19 19:33N 35°30' E 139°43'0 0.0
2016-Aug-19 18:33N 35°30' E 139°43'0 0.0
2016-Aug-19 17:33N 35°30' E 139°43'0 0.0
2016-Aug-19 16:33N 35°30' E 139°43'0 0.0
2016-Aug-19 15:33N 35°30' E 139°43'0 0.0
2016-Aug-19 14:33N 35°30' E 139°43'0 0.0
2016-Aug-19 13:33N 35°30' E 139°43'0 0.0
2016-Aug-19 12:33N 35°30' E 139°43'0 0.0
2016-Aug-19 11:33N 35°30' E 139°43'0 0.0
2016-Aug-19 10:33N 35°30' E 139°43'0 0.0
2016-Aug-19 09:33N 35°30' E 139°43'0 0.0
2016-Aug-19 08:33N 35°30' E 139°43'0 0.0
2016-Aug-19 07:33N 35°30' E 139°43'0 0.0
2016-Aug-19 06:33N 35°30' E 139°43'0 0.0
2016-Aug-19 05:33N 35°30' E 139°43'0 0.0
2016-Aug-19 04:33N 35°30' E 139°43'0 0.0
2016-Aug-19 03:33N 35°30' E 139°43'0 0.0
2016-Aug-19 02:33N 35°30' E 139°43'0 0.0
2016-Aug-19 01:33N 35°30' E 139°43'0 0.0
2016-Aug-19 00:33N 35°30' E 139°43'0 0.0
2016-Aug-18 23:33N 35°30' E 139°43'0 0.0
2016-Aug-18 22:33N 35°30' E 139°43'0 0.0
2016-Aug-18 21:33N 35°30' E 139°43'0 0.0
2016-Aug-18 20:33N 35°30' E 139°43'0 0.0
2016-Aug-18 19:33N 35°30' E 139°43'0 0.0
2016-Aug-18 18:33N 35°30' E 139°43'0 0.0
2016-Aug-18 17:33N 35°30' E 139°43'0 0.0
2016-Aug-18 16:33N 35°30' E 139°43'0 0.0
2016-Aug-18 15:33N 35°30' E 139°43'0 0.0
2016-Aug-18 14:33N 35°30' E 139°43'0 0.0
2016-Aug-18 13:33N 35°30' E 139°43'0 0.0
2016-Aug-18 12:33N 35°30' E 139°43'0 0.0
2016-Aug-18 11:33N 35°30' E 139°43'0 0.0
2016-Aug-18 10:33N 35°30' E 139°43'0 0.0
2016-Aug-18 09:33N 35°30' E 139°43'0 0.0
2016-Aug-18 08:33N 35°30' E 139°43'0 0.0
2016-Aug-18 07:33N 35°30' E 139°43'0 0.0
2016-Aug-18 06:33N 35°30' E 139°43'0 0.0
2016-Aug-18 05:33N 35°30' E 139°43'0 0.0
2016-Aug-18 04:33N 35°30' E 139°43'0 0.0
2016-Aug-18 03:33N 35°30' E 139°43'0 0.0
2016-Aug-18 02:33N 35°30' E 139°43'0 0.0
2016-Aug-18 01:33N 35°30' E 139°43'  

Dump ship's entire track history